createdAt,value
2018-11-02T00:01:28.902Z,12.30
2018-11-02T00:03:59.722Z,12.10
2018-11-02T00:06:36.211Z,11.70
2018-11-02T00:09:09.008Z,12.20
2018-11-02T00:11:41.360Z,12.00
2018-11-02T00:14:11.452Z,12.30
2018-11-02T00:16:40.682Z,12.30
2018-11-02T00:19:10.065Z,11.70
2018-11-02T00:21:38.676Z,12.10
2018-11-02T00:24:08.086Z,11.60
2018-11-02T00:26:37.333Z,12.10
2018-11-02T00:29:08.808Z,11.90
2018-11-02T00:31:38.286Z,11.90
2018-11-02T00:36:56.890Z,12.30
2018-11-02T00:39:29.503Z,11.60
2018-11-02T00:42:01.993Z,11.80
2018-11-02T00:44:32.858Z,12.10
2018-11-02T00:47:04.729Z,12.00
2018-11-02T00:49:36.260Z,11.80
2018-11-02T00:52:07.134Z,12.00
2018-11-02T00:54:36.697Z,12.30
2018-11-02T00:57:13.997Z,11.90
2018-11-02T00:59:45.460Z,12.20
2018-11-02T01:02:15.799Z,12.00
2018-11-02T01:04:47.401Z,12.00
2018-11-02T01:07:18.064Z,11.60
2018-11-02T01:09:48.653Z,11.60
2018-11-02T01:12:18.174Z,11.70
2018-11-02T01:14:49.113Z,11.70
2018-11-02T01:17:19.800Z,11.80
2018-11-02T01:19:49.808Z,11.90
2018-11-02T01:22:18.485Z,12.10
2018-11-02T01:24:49.218Z,12.20
2018-11-02T01:27:19.709Z,12.10
2018-11-02T01:29:48.838Z,12.10
2018-11-02T01:32:17.451Z,11.70
2018-11-02T01:34:46.156Z,11.90
2018-11-02T01:37:17.476Z,12.00
2018-11-02T01:39:47.293Z,12.10
2018-11-02T01:42:18.287Z,12.00
2018-11-02T01:44:47.888Z,12.00
2018-11-02T01:47:16.864Z,11.80
2018-11-02T01:49:48.366Z,11.70
2018-11-02T01:52:18.176Z,11.60
2018-11-02T01:54:50.388Z,11.80
2018-11-02T01:57:20.074Z,11.10
2018-11-02T02:02:28.925Z,11.10
2018-11-02T02:04:58.766Z,11.20
2018-11-02T02:07:27.322Z,11.60
2018-11-02T02:09:57.676Z,11.40
2018-11-02T02:12:26.256Z,11.50
2018-11-02T02:14:58.208Z,11.40
2018-11-02T02:17:28.882Z,11.40
2018-11-02T02:20:01.981Z,11.30
2018-11-02T02:22:30.531Z,10.70
2018-11-02T02:25:00.566Z,11.40
2018-11-02T02:27:35.551Z,11.60
2018-11-02T02:30:06.271Z,11.40
2018-11-02T02:32:36.103Z,11.10
2018-11-02T02:35:05.761Z,11.20
2018-11-02T02:37:37.046Z,10.60
2018-11-02T02:40:09.119Z,11.40
2018-11-02T02:42:38.680Z,11.50
2018-11-02T02:45:09.435Z,10.70
2018-11-02T02:47:39.651Z,11.00
2018-11-02T02:50:11.969Z,11.50
2018-11-02T02:52:41.778Z,11.50
2018-11-02T02:55:11.822Z,11.00
2018-11-02T02:57:41.224Z,11.00
2018-11-02T03:00:13.175Z,11.30
2018-11-02T03:02:42.966Z,11.20
2018-11-02T03:05:12.621Z,10.10
2018-11-02T03:07:41.893Z,10.80
2018-11-02T03:10:12.168Z,11.00
2018-11-02T03:12:40.702Z,11.10
2018-11-02T03:15:09.975Z,11.20
2018-11-02T03:17:38.795Z,11.10
2018-11-02T03:20:10.616Z,10.70
2018-11-02T03:22:41.149Z,10.80
2018-11-02T03:25:11.496Z,11.10
2018-11-02T03:27:41.995Z,11.10
2018-11-02T03:30:12.065Z,10.50
2018-11-02T03:32:46.220Z,11.10
2018-11-02T03:35:14.996Z,10.70
2018-11-02T03:37:45.436Z,10.80
2018-11-02T03:40:14.850Z,10.90
2018-11-02T03:42:43.344Z,11.10
2018-11-02T03:45:13.412Z,10.50
2018-11-02T03:47:43.096Z,10.60
2018-11-02T03:50:12.662Z,11.00
2018-11-02T03:52:42.115Z,11.30
2018-11-02T03:55:12.872Z,10.80
2018-11-02T03:57:41.844Z,11.20
2018-11-02T04:00:10.980Z,11.20
2018-11-02T04:02:40.389Z,10.70
2018-11-02T04:05:11.886Z,11.40
2018-11-02T04:07:40.721Z,11.00
2018-11-02T04:10:11.418Z,11.30
2018-11-02T04:12:41.916Z,11.20
2018-11-02T04:15:11.998Z,11.30
2018-11-02T04:17:41.372Z,11.10
2018-11-02T04:20:12.464Z,11.20
2018-11-02T04:22:42.188Z,11.20
2018-11-02T04:25:16.515Z,11.10
2018-11-02T04:27:48.991Z,11.20
2018-11-02T04:30:24.796Z,10.90
2018-11-02T04:32:55.700Z,10.70
2018-11-02T04:35:27.747Z,10.80
2018-11-02T04:38:03.092Z,11.20
2018-11-02T04:40:36.103Z,11.20
2018-11-02T04:43:07.435Z,11.20
2018-11-02T04:45:42.412Z,10.90
2018-11-02T04:48:13.075Z,11.00
2018-11-02T04:50:43.055Z,10.60
2018-11-02T04:53:14.625Z,11.20
2018-11-02T04:55:46.741Z,11.20
2018-11-02T04:58:15.969Z,11.20
2018-11-02T05:00:47.436Z,10.60
2018-11-02T05:03:19.295Z,11.10
2018-11-02T05:05:48.406Z,10.90
2018-11-02T05:08:18.898Z,11.00
2018-11-02T05:10:50.573Z,10.70
2018-11-02T05:13:21.397Z,10.80
2018-11-02T05:15:51.117Z,10.80
2018-11-02T05:18:23.205Z,11.00
2018-11-02T05:20:55.381Z,10.60
2018-11-02T05:23:28.425Z,11.30
2018-11-02T05:25:59.552Z,10.90
2018-11-02T05:28:29.178Z,11.60
2018-11-02T05:30:58.750Z,11.50
2018-11-02T05:33:33.212Z,11.40
2018-11-02T05:36:05.507Z,11.20
2018-11-02T05:41:19.406Z,11.40
2018-11-02T05:43:49.093Z,11.10
2018-11-02T05:46:19.164Z,11.10
2018-11-02T05:48:48.017Z,11.00
2018-11-02T05:51:17.778Z,10.90
2018-11-02T05:53:46.692Z,10.90
2018-11-02T05:58:54.491Z,11.00
2018-11-02T06:01:33.794Z,10.10
2018-11-02T06:04:04.713Z,10.60
2018-11-02T06:06:34.306Z,10.30
2018-11-02T06:09:08.822Z,10.20
2018-11-02T06:11:43.384Z,10.50
2018-11-02T06:14:13.564Z,10.20
2018-11-02T06:16:44.744Z,10.10
2018-11-02T06:19:17.013Z,9.80
2018-11-02T06:21:47.512Z,9.90
2018-11-02T06:24:18.429Z,10.10
2018-11-02T06:26:48.633Z,10.20
2018-11-02T06:29:22.028Z,10.10
2018-11-02T06:31:52.096Z,10.00
2018-11-02T06:34:22.695Z,9.60
2018-11-02T06:36:53.149Z,9.50
2018-11-02T06:39:25.023Z,9.70
2018-11-02T06:41:53.869Z,9.30
2018-11-02T06:44:28.042Z,9.30
2018-11-02T06:46:57.620Z,9.60
2018-11-02T06:49:26.451Z,9.30
2018-11-02T06:51:56.079Z,9.50
2018-11-02T06:54:26.569Z,9.60
2018-11-02T06:56:57.343Z,9.50
2018-11-02T06:59:28.468Z,9.90
2018-11-02T07:01:59.646Z,9.40
2018-11-02T07:04:32.340Z,8.90
2018-11-02T07:07:02.270Z,9.20
2018-11-02T07:09:33.252Z,9.50
2018-11-02T07:12:01.854Z,9.40
2018-11-02T07:14:32.072Z,8.60
2018-11-02T07:17:03.994Z,9.20
2018-11-02T07:19:37.882Z,9.20
2018-11-02T07:22:09.765Z,9.10
2018-11-02T07:24:41.875Z,9.10
2018-11-02T07:27:16.156Z,9.80
2018-11-02T07:29:46.553Z,9.30
2018-11-02T07:32:18.803Z,9.70
2018-11-02T07:34:48.762Z,9.60
2018-11-02T07:37:22.406Z,9.70
2018-11-02T07:39:53.408Z,8.90
2018-11-02T07:42:23.773Z,9.30
2018-11-02T07:44:54.128Z,9.20
2018-11-02T07:47:25.054Z,9.00
2018-11-02T07:49:54.045Z,9.10
2018-11-02T07:52:24.077Z,9.30
2018-11-02T07:54:55.792Z,8.50
2018-11-02T07:57:25.557Z,8.90
2018-11-02T07:59:55.189Z,8.50
2018-11-02T08:02:25.889Z,8.70
2018-11-02T08:04:57.592Z,8.70
2018-11-02T08:07:27.507Z,8.70
2018-11-02T08:09:58.182Z,8.80
2018-11-02T08:12:27.037Z,8.90
2018-11-02T08:14:57.476Z,8.90
2018-11-02T08:17:29.260Z,9.20
2018-11-02T08:20:02.052Z,9.20
2018-11-02T08:22:33.879Z,9.30
2018-11-02T08:25:05.473Z,9.30
2018-11-02T08:27:34.596Z,9.20
2018-11-02T08:30:07.880Z,9.10
2018-11-02T08:32:38.409Z,9.20
2018-11-02T08:35:11.711Z,9.20
2018-11-02T08:37:43.152Z,8.60
2018-11-02T08:40:13.835Z,9.30
2018-11-02T08:42:43.507Z,9.20
2018-11-02T08:45:14.188Z,9.20
2018-11-02T08:47:45.747Z,9.50
2018-11-02T08:50:15.835Z,9.40
2018-11-02T08:52:45.301Z,9.50
2018-11-02T08:55:15.753Z,9.60
2018-11-02T08:57:46.280Z,9.70
2018-11-02T09:00:15.897Z,9.80
2018-11-02T09:02:46.857Z,10.00
2018-11-02T09:05:20.317Z,10.10
2018-11-02T09:07:57.335Z,10.10
2018-11-02T09:10:28.865Z,10.10
2018-11-02T09:13:01.004Z,10.70
2018-11-02T09:15:33.815Z,10.80
2018-11-02T09:18:04.902Z,11.00
2018-11-02T09:20:35.425Z,11.00
2018-11-02T09:23:11.974Z,10.90
2018-11-02T09:25:44.748Z,10.90
2018-11-02T09:28:15.960Z,11.20
2018-11-02T09:30:44.971Z,11.20
2018-11-02T09:33:14.415Z,11.40
2018-11-02T09:35:43.233Z,11.30
2018-11-02T09:38:13.235Z,11.60
2018-11-02T09:40:42.925Z,11.40
2018-11-02T09:43:12.456Z,11.00
2018-11-02T09:45:43.138Z,11.40
2018-11-02T09:48:13.360Z,12.10
2018-11-02T09:50:42.007Z,11.50
2018-11-02T09:53:12.775Z,11.90
2018-11-02T09:55:44.879Z,11.80
2018-11-02T09:58:15.547Z,11.90
2018-11-02T10:00:47.170Z,11.80
2018-11-02T10:03:17.298Z,11.50
2018-11-02T10:05:47.067Z,12.30
2018-11-02T10:08:16.252Z,11.30
2018-11-02T10:10:47.159Z,12.10
2018-11-02T10:13:18.569Z,12.00
2018-11-02T10:15:47.335Z,12.10
2018-11-02T10:18:15.996Z,12.00
2018-11-02T10:20:45.185Z,11.80
2018-11-02T10:23:15.887Z,11.90
2018-11-02T10:25:47.019Z,11.90
2018-11-02T10:28:15.906Z,11.50
2018-11-02T10:30:44.825Z,12.00
2018-11-02T10:33:16.753Z,11.90
2018-11-02T10:35:45.758Z,11.90
2018-11-02T10:38:14.392Z,12.00
2018-11-02T10:40:49.348Z,11.90
2018-11-02T10:43:24.179Z,12.00
2018-11-02T10:45:57.844Z,12.20
2018-11-02T10:48:29.576Z,12.20
2018-11-02T10:51:02.752Z,12.40
2018-11-02T10:53:33.676Z,12.30
2018-11-02T10:56:04.257Z,12.30
2018-11-02T10:58:33.817Z,12.60
2018-11-02T11:01:08.461Z,12.80
2018-11-02T11:03:38.974Z,13.20
2018-11-02T11:08:48.815Z,12.90
2018-11-02T11:11:19.501Z,13.00
2018-11-02T11:13:48.836Z,12.90
2018-11-02T11:16:17.991Z,12.20
2018-11-02T11:18:48.104Z,13.40
2018-11-02T11:21:19.005Z,13.30
2018-11-02T11:23:48.754Z,13.20
2018-11-02T11:26:20.147Z,13.30
2018-11-02T11:28:50.210Z,12.40
2018-11-02T11:31:19.774Z,13.30
2018-11-02T11:33:48.774Z,13.30
2018-11-02T11:36:21.877Z,13.10
2018-11-02T11:38:51.163Z,13.20
2018-11-02T11:41:27.579Z,12.80
2018-11-02T11:43:56.431Z,12.70
2018-11-02T11:46:27.513Z,12.70
2018-11-02T11:48:58.572Z,12.10
2018-11-02T11:51:28.132Z,11.80
2018-11-02T11:53:57.405Z,12.50
2018-11-02T11:56:26.212Z,12.90
2018-11-02T11:58:55.413Z,12.80
2018-11-02T12:01:24.882Z,13.30
2018-11-02T12:03:54.380Z,13.40
2018-11-02T12:06:24.615Z,13.20
2018-11-02T12:08:53.431Z,13.70
2018-11-02T12:11:21.945Z,12.80
2018-11-02T12:13:51.754Z,13.00
2018-11-02T12:16:21.067Z,12.60
2018-11-02T12:18:51.336Z,13.10
2018-11-02T12:21:21.258Z,13.30
2018-11-02T12:23:50.180Z,13.40
2018-11-02T12:26:23.687Z,13.60
2018-11-02T12:28:53.540Z,13.10
2018-11-02T12:31:23.719Z,13.30
2018-11-02T12:33:53.564Z,14.10
2018-11-02T12:36:24.492Z,13.30
2018-11-02T12:39:01.961Z,13.10
2018-11-02T12:41:31.941Z,13.70
2018-11-02T12:44:05.228Z,13.00
2018-11-02T12:46:36.030Z,13.80
2018-11-02T12:49:06.384Z,13.80
2018-11-02T12:51:35.088Z,14.30
2018-11-02T12:54:04.903Z,13.80
2018-11-02T12:56:34.916Z,13.90
2018-11-02T12:59:04.848Z,14.30
2018-11-02T13:01:40.776Z,13.50
2018-11-02T13:04:09.439Z,13.90
2018-11-02T13:06:41.592Z,14.30
2018-11-02T13:09:17.092Z,13.50
2018-11-02T13:11:45.698Z,13.70
2018-11-02T13:14:21.764Z,13.80
2018-11-02T13:16:50.459Z,13.70
2018-11-02T13:19:19.696Z,13.00
2018-11-02T13:21:48.463Z,12.90
2018-11-02T13:24:17.251Z,12.80
2018-11-02T13:26:47.485Z,13.00
2018-11-02T13:29:16.195Z,12.40
2018-11-02T13:31:45.430Z,12.40
2018-11-02T13:34:16.340Z,12.10
2018-11-02T13:36:46.421Z,12.50
2018-11-02T13:39:15.952Z,12.70
2018-11-02T13:41:46.593Z,12.90
2018-11-02T13:44:18.663Z,12.40
2018-11-02T13:46:50.341Z,12.20
2018-11-02T13:49:20.057Z,12.70
2018-11-02T13:51:51.276Z,12.60
2018-11-02T13:54:22.892Z,12.60
2018-11-02T13:56:53.641Z,12.70
2018-11-02T13:59:22.930Z,12.50
2018-11-02T14:01:53.082Z,12.90
2018-11-02T14:04:23.143Z,12.90
2018-11-02T14:06:52.703Z,13.00
2018-11-02T14:09:22.163Z,13.20
2018-11-02T14:11:51.869Z,13.00
2018-11-02T14:14:20.477Z,12.70
2018-11-02T14:16:52.022Z,12.90
2018-11-02T14:19:26.136Z,12.20
2018-11-02T14:21:56.369Z,11.80
2018-11-02T14:24:26.104Z,12.00
2018-11-02T14:26:54.810Z,12.20
2018-11-02T14:29:24.301Z,12.20
2018-11-02T14:31:54.242Z,12.20
2018-11-02T14:34:24.016Z,12.30
2018-11-02T14:36:53.965Z,12.50
2018-11-02T14:39:24.307Z,12.60
2018-11-02T14:41:54.295Z,11.80
2018-11-02T14:44:24.414Z,12.40
2018-11-02T14:46:55.025Z,12.30
2018-11-02T14:49:25.189Z,11.90
2018-11-02T14:51:55.514Z,12.10
2018-11-02T14:54:26.416Z,11.30
2018-11-02T14:56:56.901Z,11.90
2018-11-02T14:59:28.868Z,11.90
2018-11-02T15:01:57.590Z,11.50
2018-11-02T15:04:28.796Z,11.80
2018-11-02T15:06:58.467Z,11.80
2018-11-02T15:09:27.194Z,11.00
2018-11-02T15:11:57.361Z,11.50
2018-11-02T15:14:27.445Z,11.70
2018-11-02T15:16:58.811Z,11.50
2018-11-02T15:19:30.241Z,11.40
2018-11-02T15:22:02.491Z,11.60
2018-11-02T15:24:32.687Z,11.60
2018-11-02T15:27:05.240Z,11.30
2018-11-02T15:29:36.983Z,11.50
2018-11-02T15:32:06.913Z,11.20
2018-11-02T15:34:37.844Z,11.20
2018-11-02T15:37:08.717Z,11.40
2018-11-02T15:39:37.432Z,11.20
2018-11-02T15:42:07.425Z,10.60
2018-11-02T15:44:37.776Z,11.30
2018-11-02T15:47:07.688Z,11.40
2018-11-02T15:49:36.512Z,11.50
2018-11-02T15:52:07.496Z,10.90
2018-11-02T15:54:37.464Z,10.60
2018-11-02T15:57:06.520Z,10.70
2018-11-02T15:59:37.437Z,10.80
2018-11-02T16:02:06.835Z,10.60
2018-11-02T16:04:35.523Z,10.60
2018-11-02T16:07:07.254Z,10.90
2018-11-02T16:09:42.643Z,10.90
2018-11-02T16:12:15.074Z,10.20
2018-11-02T16:14:45.481Z,10.40
2018-11-02T16:17:15.709Z,10.80
2018-11-02T16:19:45.366Z,10.80
2018-11-02T16:22:14.257Z,10.40
2018-11-02T16:24:43.413Z,10.00
2018-11-02T16:27:12.977Z,10.10
2018-11-02T16:29:46.904Z,10.00
2018-11-02T16:32:16.756Z,10.10
2018-11-02T16:34:45.474Z,10.50
2018-11-02T16:37:15.145Z,10.00
2018-11-02T16:39:46.493Z,9.80
2018-11-02T16:42:15.299Z,9.40
2018-11-02T16:44:46.853Z,9.20
2018-11-02T16:47:16.660Z,9.60
2018-11-02T16:49:46.768Z,9.70
2018-11-02T16:52:18.081Z,9.80
2018-11-02T16:54:47.984Z,9.70
2018-11-02T16:57:19.863Z,9.50
2018-11-02T16:59:49.352Z,9.50
2018-11-02T17:02:18.817Z,9.30
2018-11-02T17:04:47.547Z,9.20
2018-11-02T17:07:17.860Z,9.20
2018-11-02T17:09:48.095Z,8.90
2018-11-02T17:12:18.319Z,9.10
2018-11-02T17:14:50.926Z,8.70
2018-11-02T17:17:20.449Z,8.00
2018-11-02T17:19:53.055Z,8.90
2018-11-02T17:22:24.715Z,8.70
2018-11-02T17:24:55.302Z,8.70
2018-11-02T17:27:24.145Z,8.50
2018-11-02T17:29:54.408Z,8.10
2018-11-02T17:32:27.530Z,8.60
2018-11-02T17:34:58.730Z,8.70
2018-11-02T17:37:29.955Z,8.80
2018-11-02T17:40:01.475Z,8.70
2018-11-02T17:42:32.916Z,8.30
2018-11-02T17:45:01.694Z,8.40
2018-11-02T17:47:31.538Z,8.60
2018-11-02T17:50:03.426Z,8.10
2018-11-02T17:52:32.046Z,8.10
2018-11-02T17:55:06.665Z,8.10
2018-11-02T17:57:37.403Z,8.20
2018-11-02T18:00:12.062Z,8.20
2018-11-02T18:02:46.345Z,8.10
2018-11-02T18:05:18.320Z,8.20
2018-11-02T18:07:47.882Z,7.90
2018-11-02T18:10:18.802Z,7.90
2018-11-02T18:12:49.209Z,7.20
2018-11-02T18:15:18.195Z,7.90
2018-11-02T18:17:47.891Z,7.80
2018-11-02T18:20:19.278Z,7.80
2018-11-02T18:22:48.367Z,7.70
2018-11-02T18:25:17.252Z,7.90
2018-11-02T18:27:45.934Z,7.10
2018-11-02T18:30:14.353Z,7.80
2018-11-02T18:32:43.048Z,7.10
2018-11-02T18:35:11.467Z,7.50
2018-11-02T18:37:40.878Z,7.40
2018-11-02T18:40:12.646Z,7.20
2018-11-02T18:42:41.368Z,7.60
2018-11-02T18:45:14.313Z,7.50
2018-11-02T18:47:42.898Z,6.40
2018-11-02T18:50:12.418Z,7.10
2018-11-02T18:52:40.875Z,6.90
2018-11-02T18:55:11.303Z,7.20
2018-11-02T18:57:39.940Z,7.30
2018-11-02T19:00:10.177Z,7.50
2018-11-02T19:02:38.708Z,7.40
2018-11-02T19:05:10.601Z,7.10
2018-11-02T19:07:38.946Z,7.40
2018-11-02T19:10:08.596Z,6.40
2018-11-02T19:12:39.143Z,7.10
2018-11-02T19:15:11.102Z,6.60
2018-11-02T19:17:39.748Z,6.70
2018-11-02T19:20:10.690Z,6.90
2018-11-02T19:22:39.092Z,6.60
2018-11-02T19:25:09.806Z,6.80
2018-11-02T19:27:38.257Z,6.70
2018-11-02T19:30:09.276Z,6.70
2018-11-02T19:32:38.108Z,6.50
2018-11-02T19:35:07.567Z,6.40
2018-11-02T19:37:35.967Z,6.80
2018-11-02T19:40:10.199Z,6.10
2018-11-02T19:42:38.744Z,5.80
2018-11-02T19:45:08.455Z,6.40
2018-11-02T19:47:42.643Z,6.40
2018-11-02T19:50:13.804Z,6.60
2018-11-02T19:52:43.182Z,6.70
2018-11-02T19:55:12.479Z,6.30
2018-11-02T19:57:42.209Z,6.60
2018-11-02T20:00:12.873Z,6.30
2018-11-02T20:02:42.005Z,6.90
2018-11-02T20:05:13.043Z,6.60
2018-11-02T20:07:42.325Z,6.80
2018-11-02T20:10:12.107Z,6.70
2018-11-02T20:12:43.639Z,6.40
2018-11-02T20:15:14.092Z,6.60
2018-11-02T20:17:45.311Z,6.70
2018-11-02T20:20:14.895Z,6.50
2018-11-02T20:22:45.074Z,6.50
2018-11-02T20:25:15.424Z,6.10
2018-11-02T20:27:44.053Z,5.90
2018-11-02T20:30:15.153Z,6.30
2018-11-02T20:32:43.679Z,5.50
2018-11-02T20:35:12.250Z,6.10
2018-11-02T20:37:43.520Z,5.50
2018-11-02T20:40:15.556Z,6.40
2018-11-02T20:42:44.749Z,6.40
2018-11-02T20:45:13.535Z,6.30
2018-11-02T20:47:52.978Z,5.80
2018-11-02T20:50:22.352Z,5.90
2018-11-02T20:52:51.843Z,6.20
2018-11-02T20:55:20.379Z,5.90
2018-11-02T20:57:48.807Z,6.20
2018-11-02T21:00:19.806Z,5.80
2018-11-02T21:02:53.821Z,5.50
2018-11-02T21:05:22.562Z,6.00
2018-11-02T21:07:51.848Z,5.90
2018-11-02T21:10:21.171Z,5.30
2018-11-02T21:12:49.705Z,5.70
2018-11-02T21:15:20.407Z,5.70
2018-11-02T21:17:49.409Z,5.50
2018-11-02T21:20:19.284Z,4.80
2018-11-02T21:22:47.820Z,5.70
2018-11-02T21:25:16.590Z,5.70
2018-11-02T21:27:45.812Z,5.50
2018-11-02T21:30:17.532Z,5.70
2018-11-02T21:32:47.000Z,5.80
2018-11-02T21:35:18.202Z,5.80
2018-11-02T21:37:48.001Z,5.50
2018-11-02T21:40:18.424Z,5.50
2018-11-02T21:42:46.990Z,5.40
2018-11-02T21:45:17.585Z,5.40
2018-11-02T21:47:46.243Z,5.10
2018-11-02T21:50:15.223Z,5.20
2018-11-02T21:52:48.306Z,5.30
2018-11-02T21:55:17.150Z,5.40
2018-11-02T21:57:46.816Z,4.80
2018-11-02T22:02:50.237Z,5.30
2018-11-02T22:05:19.066Z,5.30
2018-11-02T22:07:48.784Z,5.30
2018-11-02T22:10:19.306Z,5.30
2018-11-02T22:12:47.659Z,5.20
2018-11-02T22:15:16.551Z,5.40
2018-11-02T22:17:45.067Z,5.00
2018-11-02T22:20:14.508Z,5.10
2018-11-02T22:22:43.469Z,5.30
2018-11-02T22:25:12.847Z,5.30
2018-11-02T22:27:41.232Z,5.70
2018-11-02T22:30:17.053Z,5.20
2018-11-02T22:32:45.389Z,5.30
2018-11-02T22:35:14.679Z,4.40
2018-11-02T22:37:43.057Z,4.60
2018-11-02T22:40:12.363Z,5.10
2018-11-02T22:42:41.440Z,5.10
2018-11-02T22:45:11.313Z,4.80
2018-11-02T22:47:40.074Z,4.40
2018-11-02T22:50:08.867Z,5.20
2018-11-02T22:52:37.396Z,4.90
2018-11-02T22:55:07.092Z,4.80
2018-11-02T22:57:35.615Z,4.80
2018-11-02T23:00:08.124Z,4.80
2018-11-02T23:02:36.855Z,5.00
2018-11-02T23:05:05.877Z,4.90
2018-11-02T23:07:34.477Z,5.10
2018-11-02T23:10:03.567Z,4.90
2018-11-02T23:12:31.900Z,4.90
2018-11-02T23:15:00.900Z,5.10
2018-11-02T23:17:29.259Z,4.60
2018-11-02T23:19:57.618Z,5.10
2018-11-02T23:22:26.848Z,4.80
2018-11-02T23:24:56.235Z,5.00
2018-11-02T23:27:24.577Z,4.90
2018-11-02T23:29:53.145Z,5.10
2018-11-02T23:32:21.463Z,4.30
2018-11-02T23:34:49.786Z,4.80
2018-11-02T23:37:18.332Z,4.70
2018-11-02T23:39:46.674Z,5.00
2018-11-02T23:42:15.000Z,5.10
2018-11-02T23:44:43.445Z,5.00
2018-11-02T23:47:11.837Z,5.10
2018-11-02T23:49:40.311Z,5.10
2018-11-02T23:52:08.720Z,5.10
2018-11-02T23:54:37.108Z,5.40
2018-11-02T23:57:05.969Z,5.50
2018-11-02T23:59:34.392Z,5.60
